Time;durP1;ratioP1;P1;durP2;ratioP2;P2;SDS_P1;SDS_P2;PMS_P1;PMS_P2;Temp;Humidity;BMP_temperature;BMP_pressure;BME280_temperature;BME280_humidity;BME280_pressure;Samples;Min_cycle;Max_cycle;Signal;HPM_P1;HPM_P2
2022/08/03 00:00:59;;;;;;;8.90;7.00;;;;;;;15.79;76.22;100433.19;130142;1267;197709;-74
2022/08/03 00:04:05;;;;;;;9.90;6.70;;;;;;;15.75;76.46;100432.45;130331;1268;108696;-74
2022/08/03 00:07:10;;;;;;;10.10;7.80;;;;;;;15.67;76.40;100432.36;130297;1267;108711;-74
2022/08/03 00:10:16;;;;;;;7.10;6.40;;;;;;;15.58;76.73;100430.45;130274;1268;108839;-75
2022/08/03 00:13:22;;;;;;;7.40;6.60;;;;;;;15.54;76.62;100428.83;130249;1268;108759;-74
2022/08/03 00:16:27;;;;;;;7.80;6.80;;;;;;;15.55;76.70;100429.21;130263;1268;108770;-74
2022/08/03 00:19:33;;;;;;;7.30;6.40;;;;;;;15.61;76.61;100435.40;130296;1268;107740;-74
2022/08/03 00:22:38;;;;;;;7.50;6.70;;;;;;;15.55;76.44;100437.41;130343;1268;107737;-74
2022/08/03 00:25:43;;;;;;;7.60;6.90;;;;;;;15.51;76.87;100440.35;130274;1268;107749;-74
2022/08/03 00:28:49;;;;;;;8.80;7.10;;;;;;;15.50;76.91;100441.42;130275;1268;108755;-74
2022/08/03 00:31:55;;;;;;;7.30;6.20;;;;;;;15.43;76.85;100442.08;130309;1268;109179;-74
2022/08/03 00:35:00;;;;;;;7.50;6.70;;;;;;;15.38;77.16;100441.92;130280;1267;107694;-74
2022/08/03 00:38:05;;;;;;;7.20;6.50;;;;;;;15.41;77.16;100440.85;130320;1268;109083;-74
2022/08/03 00:41:11;;;;;;;7.60;6.40;;;;;;;15.45;77.00;100441.33;130263;1268;108711;-74
2022/08/03 00:44:16;;;;;;;8.10;6.90;;;;;;;15.41;76.86;100445.73;130300;1268;108940;-74
2022/08/03 00:47:21;;;;;;;6.50;5.90;;;;;;;15.32;77.18;100444.58;130280;1267;108801;-74
2022/08/03 00:50:30;;;;;;;6.50;5.90;;;;;;;15.34;77.18;100448.09;130270;1268;108770;-74
2022/08/03 00:53:37;;;;;;;6.90;5.90;;;;;;;15.34;77.05;100444.91;130274;1267;108713;-74
2022/08/03 00:56:43;;;;;;;8.10;6.30;;;;;;;15.32;77.02;100446.91;130302;1268;108609;-74
2022/08/03 00:59:48;;;;;;;8.20;6.60;;;;;;;15.33;76.88;100446.99;130260;1268;109845;-74
2022/08/03 01:02:54;;;;;;;6.90;6.20;;;;;;;15.25;77.06;100446.25;130341;1268;108998;-74
2022/08/03 01:06:12;;;;;;;7.90;6.20;;;;;;;15.16;76.96;100448.27;130313;1268;108823;-74
2022/08/03 01:09:25;;;;;;;6.00;5.20;;;;;;;15.10;77.28;100444.80;130297;1268;109728;-74
2022/08/03 01:12:38;;;;;;;7.50;5.90;;;;;;;15.05;77.40;100437.16;130294;1267;108707;-74
2022/08/03 01:15:53;;;;;;;9.20;6.40;;;;;;;15.06;77.33;100439.21;130266;1267;108802;-74
2022/08/03 01:19:08;;;;;;;6.80;6.10;;;;;;;15.07;77.36;100439.82;130325;1268;108146;-74
2022/08/03 01:22:32;;;;;;;8.80;6.80;;;;;;;15.07;77.29;100439.07;130306;1268;108737;-74
2022/08/03 01:25:55;;;;;;;7.00;5.80;;;;;;;14.98;77.43;100440.80;130221;1268;108596;-74
2022/08/03 01:29:10;;;;;;;6.10;5.50;;;;;;;14.92;77.52;100434.90;130317;1267;108825;-74
2022/08/03 01:32:19;;;;;;;6.80;5.90;;;;;;;14.95;77.46;100433.50;130307;1268;108225;-74
2022/08/03 01:35:29;;;;;;;8.60;6.10;;;;;;;14.93;77.44;100437.81;130333;1268;109129;-75
2022/08/03 01:38:41;;;;;;;9.10;6.20;;;;;;;14.85;77.71;100442.42;130291;1268;108719;-74
2022/08/03 01:41:53;;;;;;;7.90;6.30;;;;;;;14.91;77.70;100437.13;130328;1267;108735;-74
2022/08/03 01:45:01;;;;;;;8.20;6.50;;;;;;;14.86;77.66;100442.15;130345;1268;106931;-74
2022/08/03 01:48:09;;;;;;;7.00;5.70;;;;;;;14.74;77.75;100442.50;130299;1268;108642;-74
2022/08/03 01:51:18;;;;;;;6.40;5.60;;;;;;;14.63;77.88;100444.25;130296;1267;108633;-74
2022/08/03 01:54:25;;;;;;;7.80;6.00;;;;;;;14.55;77.93;100440.84;130282;1268;108992;-74
2022/08/03 01:57:33;;;;;;;7.50;6.30;;;;;;;14.52;78.01;100436.54;130344;1267;108751;-75
2022/08/03 02:00:41;;;;;;;7.60;6.10;;;;;;;14.53;77.99;100437.69;130289;1268;108773;-74
2022/08/03 02:03:49;;;;;;;9.40;6.50;;;;;;;14.61;78.17;100434.36;130344;1267;109039;-74
2022/08/03 02:06:56;;;;;;;6.70;5.80;;;;;;;14.54;77.95;100439.17;130294;1268;108699;-74
2022/08/03 02:10:03;;;;;;;6.40;5.40;;;;;;;14.48;78.18;100431.42;130296;1267;108881;-74
2022/08/03 02:13:10;;;;;;;7.20;5.90;;;;;;;14.56;78.04;100434.30;130316;1267;108591;-74
2022/08/03 02:16:18;;;;;;;7.90;6.10;;;;;;;14.58;77.93;100431.96;130325;1267;108544;-74
2022/08/03 02:19:25;;;;;;;6.90;6.20;;;;;;;14.54;78.26;100428.79;130305;1268;107497;-74
2022/08/03 02:22:33;;;;;;;9.40;6.50;;;;;;;14.57;78.10;100428.19;130331;1267;109372;-74
2022/08/03 02:25:45;;;;;;;8.80;7.20;;;;;;;14.52;78.20;100423.59;130288;1267;108825;-74
2022/08/03 02:28:55;;;;;;;7.20;6.30;;;;;;;14.46;78.48;100427.55;130267;1267;109117;-74
2022/08/03 02:32:03;;;;;;;9.20;6.60;;;;;;;14.42;78.45;100426.09;130282;1268;108905;-75
2022/08/03 02:35:14;;;;;;;6.90;6.20;;;;;;;14.39;78.50;100423.91;130288;1267;108766;-74
2022/08/03 02:38:25;;;;;;;7.70;6.40;;;;;;;14.39;78.81;100422.67;130345;1267;108260;-74
2022/08/03 02:41:36;;;;;;;11.50;6.90;;;;;;;14.37;78.66;100422.69;130297;1268;109972;-74
2022/08/03 02:44:47;;;;;;;11.60;7.20;;;;;;;14.37;78.81;100420.83;130327;1267;108685;-74
2022/08/03 02:47:56;;;;;;;8.70;6.80;;;;;;;14.49;78.68;100422.00;130268;1268;108702;-74
2022/08/03 02:51:03;;;;;;;8.70;6.30;;;;;;;14.47;78.67;100422.04;130320;1267;108981;-74
2022/08/03 02:54:11;;;;;;;7.50;6.60;;;;;;;14.43;78.81;100423.02;130340;1267;108790;-74
2022/08/03 02:57:18;;;;;;;8.00;6.30;;;;;;;14.46;78.90;100425.09;130133;1267;108790;-75
2022/08/03 03:00:24;;;;;;;7.90;6.40;;;;;;;14.55;79.00;100433.36;130312;1268;108642;-75
2022/08/03 03:03:30;;;;;;;8.80;6.70;;;;;;;14.54;78.58;100430.04;130352;1268;108156;-74
2022/08/03 03:06:37;;;;;;;7.90;6.20;;;;;;;14.52;78.87;100435.23;130320;1267;109745;-74
2022/08/03 03:09:44;;;;;;;6.10;5.40;;;;;;;14.54;78.75;100436.44;130295;1268;108840;-74
2022/08/03 03:12:53;;;;;;;6.40;5.30;;;;;;;14.55;78.84;100436.61;130282;1268;108304;-74
2022/08/03 03:16:03;;;;;;;7.40;6.00;;;;;;;14.59;78.89;100438.46;130292;1267;108160;-75
2022/08/03 03:19:11;;;;;;;7.90;7.00;;;;;;;14.60;79.20;100440.21;130326;1267;109721;-74
2022/08/03 03:22:18;;;;;;;8.40;6.50;;;;;;;14.57;78.96;100438.36;130281;1267;108706;-74
2022/08/03 03:25:24;;;;;;;10.80;6.00;;;;;;;14.54;79.01;100439.54;130306;1268;108891;-74
2022/08/03 03:28:30;;;;;;;6.90;5.70;;;;;;;14.62;79.32;100443.38;130275;1267;108808;-74
2022/08/03 03:31:36;;;;;;;7.00;5.50;;;;;;;14.72;79.15;100441.70;130347;1268;106989;-74
2022/08/03 03:34:43;;;;;;;7.70;5.90;;;;;;;14.76;79.33;100439.80;130344;1268;108918;-74
2022/08/03 03:37:48;;;;;;;6.50;5.70;;;;;;;14.80;79.41;100436.58;130331;1268;109847;-74
2022/08/03 03:40:54;;;;;;;8.60;6.60;;;;;;;14.85;79.17;100441.94;130292;1268;108659;-74
2022/08/03 03:44:00;;;;;;;7.60;5.60;;;;;;;14.93;79.37;100439.96;130251;1268;108628;-74
2022/08/03 03:47:05;;;;;;;6.70;5.50;;;;;;;15.01;79.14;100441.73;130261;1268;108669;-73
2022/08/03 03:50:11;;;;;;;6.30;5.30;;;;;;;15.03;79.47;100439.16;130303;1267;109076;-75
2022/08/03 03:53:17;;;;;;;6.60;5.60;;;;;;;15.31;80.92;100439.31;130270;1267;107833;-73
2022/08/03 03:56:22;;;;;;;5.90;5.30;;;;;;;15.78;80.79;100444.52;130302;1268;107607;-73
2022/08/03 03:59:28;;;;;;;5.30;4.80;;;;;;;16.21;80.61;100444.46;130295;1268;108805;-74
2022/08/03 04:02:34;;;;;;;4.90;4.40;;;;;;;16.61;80.39;100446.81;130314;1268;108782;-73
2022/08/03 04:12:41;;;;;;;5.00;4.40;;;;;;;17.78;79.56;100455.66;129877;1271;108853;-73
2022/08/03 04:15:47;;;;;;;5.50;5.00;;;;;;;18.05;79.11;100456.50;129935;1271;108999;-73
2022/08/03 04:19:01;;;;;;;5.20;4.70;;;;;;;18.23;78.90;100458.94;130230;1268;108990;-75
2022/08/03 04:22:09;;;;;;;4.70;4.30;;;;;;;18.33;78.16;100462.80;130324;1267;108763;-74
2022/08/03 04:25:18;;;;;;;4.70;4.20;;;;;;;18.54;78.73;100464.64;130346;1267;107388;-74
2022/08/03 04:28:25;;;;;;;7.50;5.00;;;;;;;18.82;78.22;100461.30;130298;1267;108495;-73
2022/08/03 04:31:32;;;;;;;5.40;4.70;;;;;;;19.09;77.89;100464.30;130334;1268;108749;-73
2022/08/03 04:34:37;;;;;;;6.00;4.30;;;;;;;19.30;77.56;100468.85;130325;1268;108610;-73
2022/08/03 04:37:46;;;;;;;4.90;4.20;;;;;;;19.47;77.21;100466.80;130257;1268;108611;-73
2022/08/03 04:40:53;;;;;;;5.00;4.50;;;;;;;19.63;76.65;100466.68;130341;1267;107863;-73
2022/08/03 04:44:01;;;;;;;4.80;4.40;;;;;;;19.86;76.55;100476.52;130381;1267;108024;-73
2022/08/03 04:47:07;;;;;;;5.70;5.20;;;;;;;20.06;76.38;100479.13;130349;1267;110021;-73
2022/08/03 04:50:13;;;;;;;5.40;4.90;;;;;;;20.23;76.13;100479.34;130382;1267;108777;-73
2022/08/03 04:53:19;;;;;;;5.00;4.40;;;;;;;20.37;75.76;100485.28;130397;1267;107714;-74
2022/08/03 04:56:24;;;;;;;5.30;4.80;;;;;;;20.53;75.57;100485.45;130328;1267;108684;-73
2022/08/03 04:59:30;;;;;;;5.20;4.70;;;;;;;20.70;75.31;100481.87;130286;1267;109498;-74
2022/08/03 05:02:35;;;;;;;5.10;4.60;;;;;;;20.86;75.15;100483.27;130292;1268;108879;-73
2022/08/03 05:05:40;;;;;;;5.20;4.70;;;;;;;20.98;74.87;100485.80;130309;1267;108878;-74
2022/08/03 05:08:46;;;;;;;5.60;4.90;;;;;;;21.12;74.59;100488.11;130296;1268;108969;-74
2022/08/03 05:11:51;;;;;;;4.80;4.30;;;;;;;21.19;74.30;100489.45;130365;1267;108658;-74
2022/08/03 05:14:57;;;;;;;5.60;5.10;;;;;;;21.18;74.25;100489.41;130407;1268;109518;-74
2022/08/03 05:18:03;;;;;;;5.60;4.80;;;;;;;21.16;74.47;100491.04;130336;1268;108802;-74
2022/08/03 05:21:08;;;;;;;4.90;4.50;;;;;;;21.21;74.09;100491.91;130323;1268;108762;-73
2022/08/03 05:24:14;;;;;;;5.90;5.10;;;;;;;21.33;74.10;100489.45;130321;1268;109171;-74
2022/08/03 05:27:19;;;;;;;4.80;4.30;;;;;;;21.35;73.85;100488.28;130290;1268;108809;-73
2022/08/03 05:30:25;;;;;;;6.00;4.50;;;;;;;21.38;73.63;100490.67;130331;1268;108803;-75
2022/08/03 05:33:30;;;;;;;5.60;4.60;;;;;;;21.45;73.66;100487.73;130293;1268;109032;-73
2022/08/03 05:36:35;;;;;;;6.00;5.40;;;;;;;21.54;73.45;100490.34;130301;1268;109038;-73
2022/08/03 05:39:41;;;;;;;8.20;6.60;;;;;;;21.71;74.05;100489.02;130347;1267;108946;-71
2022/08/03 05:42:47;;;;;;;6.70;6.00;;;;;;;21.87;74.34;100489.13;130280;1268;108573;-71
2022/08/03 05:45:52;;;;;;;7.40;6.20;;;;;;;21.95;74.25;100493.45;130251;1267;108836;-71
2022/08/03 05:48:57;;;;;;;6.10;5.50;;;;;;;22.03;74.33;100489.70;130238;1268;107672;-71
2022/08/03 05:52:03;;;;;;;6.00;5.00;;;;;;;22.13;74.22;100490.61;130194;1268;108605;-71
2022/08/03 05:55:11;;;;;;;5.20;4.70;;;;;;;22.26;74.37;100494.60;130226;1268;108822;-71
2022/08/03 05:58:16;;;;;;;5.30;4.80;;;;;;;22.42;74.09;100500.60;130157;1268;108513;-71
2022/08/03 06:01:22;;;;;;;5.30;4.80;;;;;;;22.58;73.86;100499.66;129991;1267;108860;-70
2022/08/03 06:04:27;;;;;;;5.70;4.60;;;;;;;22.64;73.11;100504.73;130253;1268;107409;-70
2022/08/03 06:07:33;;;;;;;6.10;5.00;;;;;;;22.58;72.87;100508.05;130219;1267;108653;-70
2022/08/03 06:10:38;;;;;;;5.30;4.80;;;;;;;22.44;72.94;100509.96;130226;1266;108670;-70
2022/08/03 06:13:44;;;;;;;4.50;4.10;;;;;;;22.26;73.03;100510.66;130194;1267;108788;-70
2022/08/03 06:16:49;;;;;;;4.20;3.90;;;;;;;22.11;73.75;100514.09;130272;1268;108655;-70
2022/08/03 06:19:55;;;;;;;5.10;4.60;;;;;;;21.99;73.95;100515.54;130158;1268;109520;-70
2022/08/03 06:23:00;;;;;;;4.80;4.00;;;;;;;21.88;74.24;100517.13;130219;1267;108743;-70
2022/08/03 06:26:06;;;;;;;4.50;4.10;;;;;;;21.82;73.91;100518.17;130197;1267;108820;-70
2022/08/03 06:29:11;;;;;;;4.70;4.20;;;;;;;21.78;73.82;100518.54;130259;1268;108704;-70
2022/08/03 06:32:17;;;;;;;7.40;4.50;;;;;;;21.81;74.25;100517.60;130188;1268;108660;-70
2022/08/03 06:35:22;;;;;;;5.90;4.60;;;;;;;21.89;73.78;100521.80;130273;1267;107008;-70
2022/08/03 06:38:28;;;;;;;5.30;4.80;;;;;;;22.00;73.59;100522.63;130263;1268;108942;-71
2022/08/03 06:41:33;;;;;;;6.40;4.50;;;;;;;22.12;73.45;100519.91;130261;1267;108864;-70
2022/08/03 06:44:38;;;;;;;4.40;4.00;;;;;;;22.29;73.25;100519.22;130265;1268;109287;-70
2022/08/03 06:47:44;;;;;;;4.80;4.30;;;;;;;22.45;72.93;100522.28;130235;1267;108917;-70
2022/08/03 06:50:49;;;;;;;4.30;3.90;;;;;;;22.62;72.75;100520.85;130298;1267;107834;-70
2022/08/03 06:53:54;;;;;;;4.50;3.80;;;;;;;22.81;72.68;100515.36;130238;1267;109591;-70
2022/08/03 06:57:00;;;;;;;5.20;4.40;;;;;;;23.00;72.58;100516.40;130269;1268;108723;-71
2022/08/03 07:00:08;;;;;;;5.00;3.90;;;;;;;23.18;72.46;100519.33;130317;1267;108643;-70
2022/08/03 07:03:14;;;;;;;5.10;4.20;;;;;;;23.38;72.06;100517.95;130274;1268;107751;-70
2022/08/03 07:06:19;;;;;;;5.40;4.70;;;;;;;23.66;71.78;100515.69;130218;1268;108876;-69
2022/08/03 07:09:25;;;;;;;5.80;3.80;;;;;;;23.97;71.14;100517.50;130322;1268;109584;-70
2022/08/03 07:12:32;;;;;;;4.70;3.40;;;;;;;24.23;71.05;100521.12;130279;1268;108643;-70
2022/08/03 07:15:39;;;;;;;3.80;3.40;;;;;;;24.49;70.56;100520.58;130275;1268;107581;-70
2022/08/03 07:18:44;;;;;;;4.20;3.80;;;;;;;24.70;70.13;100520.73;130260;1268;107462;-70
2022/08/03 07:21:49;;;;;;;5.10;3.50;;;;;;;24.86;69.64;100520.30;130240;1267;109390;-70
2022/08/03 07:24:55;;;;;;;4.00;3.60;;;;;;;24.99;69.23;100522.03;130280;1267;108562;-70
2022/08/03 07:28:00;;;;;;;4.50;3.50;;;;;;;25.03;68.56;100519.56;130212;1267;110795;-70
2022/08/03 07:31:06;;;;;;;4.00;3.60;;;;;;;25.05;68.65;100520.30;130319;1268;108747;-70
2022/08/03 07:34:12;;;;;;;3.70;3.00;;;;;;;25.04;68.41;100517.44;130317;1267;108734;-70
2022/08/03 07:37:17;;;;;;;2.90;2.70;;;;;;;25.04;67.99;100518.86;130266;1268;107630;-70
2022/08/03 07:40:23;;;;;;;4.50;3.00;;;;;;;25.03;67.67;100515.30;130207;1267;107768;-70
2022/08/03 07:43:29;;;;;;;3.50;2.90;;;;;;;24.97;67.30;100514.57;130316;1267;108775;-70
2022/08/03 07:46:34;;;;;;;4.80;2.90;;;;;;;24.90;67.37;100514.38;130227;1267;109853;-70
2022/08/03 07:49:42;;;;;;;4.80;3.00;;;;;;;24.80;67.32;100514.77;130084;1268;108797;-70
2022/08/03 07:52:48;;;;;;;2.80;2.60;;;;;;;24.69;67.43;100516.26;130089;1268;108781;-70
2022/08/03 07:55:53;;;;;;;3.50;3.10;;;;;;;24.57;67.52;100519.25;130081;1268;107703;-70
2022/08/03 07:58:59;;;;;;;2.80;2.60;;;;;;;24.45;67.53;100522.61;130056;1270;108656;-70
2022/08/03 08:02:05;;;;;;;3.70;2.70;;;;;;;24.32;67.14;100520.80;130046;1268;109715;-70
2022/08/03 08:05:11;;;;;;;4.70;2.60;;;;;;;24.21;67.13;100523.91;130099;1268;108655;-70
2022/08/03 08:08:17;;;;;;;3.00;2.80;;;;;;;24.14;67.46;100523.91;130127;1268;108556;-70
2022/08/03 08:11:22;;;;;;;3.00;2.70;;;;;;;24.08;67.70;100524.44;130160;1268;108850;-70
2022/08/03 08:14:28;;;;;;;3.30;2.50;;;;;;;24.04;68.38;100527.05;130126;1268;108662;-70
2022/08/03 08:17:43;;;;;;;2.90;2.70;;;;;;;23.98;68.45;100526.48;130062;1268;109356;-70
2022/08/03 08:20:48;;;;;;;4.80;3.00;;;;;;;23.90;68.36;100531.41;130083;1268;108850;-70
2022/08/03 08:23:54;;;;;;;3.30;2.70;;;;;;;23.88;68.37;100535.00;130093;1268;109563;-70
2022/08/03 08:27:01;;;;;;;2.90;2.60;;;;;;;23.86;67.27;100537.36;130110;1268;109396;-70
2022/08/03 08:30:08;;;;;;;4.80;3.00;;;;;;;23.92;66.93;100536.41;130092;1271;108729;-70
2022/08/03 08:33:14;;;;;;;2.80;2.60;;;;;;;23.97;66.43;100532.59;130130;1269;108780;-70
2022/08/03 08:36:19;;;;;;;2.90;2.70;;;;;;;23.94;65.30;100533.15;130087;1268;108832;-70
2022/08/03 08:39:24;;;;;;;3.70;3.30;;;;;;;23.92;65.87;100533.52;130018;1270;108729;-70
2022/08/03 08:42:30;;;;;;;4.80;3.90;;;;;;;23.96;65.77;100530.36;130062;1269;108650;-70
2022/08/03 08:45:37;;;;;;;4.10;3.50;;;;;;;24.03;65.34;100529.17;130122;1271;108884;-70
2022/08/03 08:48:45;;;;;;;4.90;3.70;;;;;;;24.12;65.79;100527.81;130293;1268;108138;-70
2022/08/03 08:51:53;;;;;;;4.70;3.50;;;;;;;24.18;65.53;100530.17;130345;1267;108716;-70
2022/08/03 08:55:02;;;;;;;6.00;3.30;;;;;;;24.23;65.29;100529.98;130228;1265;108982;-70
2022/08/03 08:58:11;;;;;;;7.10;3.30;;;;;;;24.33;65.19;100532.06;130323;1267;108771;-70
2022/08/03 09:01:19;;;;;;;4.70;3.50;;;;;;;24.40;64.81;100533.68;130310;1267;108861;-70
2022/08/03 09:04:25;;;;;;;4.40;3.10;;;;;;;24.37;64.81;100529.80;130338;1267;108942;-70
2022/08/03 09:07:30;;;;;;;6.60;3.00;;;;;;;24.36;64.56;100528.73;130325;1267;108662;-70
2022/08/03 09:10:36;;;;;;;3.10;2.50;;;;;;;24.34;63.89;100529.74;130093;1267;111683;-70
2022/08/03 09:13:41;;;;;;;6.10;2.90;;;;;;;24.36;64.08;100526.82;130318;1267;108957;-70
2022/08/03 09:17:01;;;;;;;3.70;3.00;;;;;;;24.42;64.09;100527.77;130098;1268;109784;-70
2022/08/03 09:20:09;;;;;;;5.60;2.90;;;;;;;24.46;63.65;100523.39;130306;1268;109146;-70
2022/08/03 09:23:15;;;;;;;3.50;3.10;;;;;;;24.48;63.26;100523.17;130279;1267;108902;-70
2022/08/03 09:26:26;;;;;;;3.00;2.60;;;;;;;24.51;62.91;100522.44;130290;1267;107533;-70
2022/08/03 09:29:34;;;;;;;5.10;2.70;;;;;;;24.55;63.05;100519.42;130390;1267;108722;-70
2022/08/03 09:32:39;;;;;;;2.80;2.60;;;;;;;24.61;62.99;100522.38;130130;1270;108695;-70
2022/08/03 09:35:47;;;;;;;3.90;2.90;;;;;;;24.66;62.78;100519.63;130292;1268;107325;-70
2022/08/03 09:39:04;;;;;;;4.10;2.90;;;;;;;24.69;62.33;100513.77;130303;1267;108754;-70
2022/08/03 09:42:12;;;;;;;3.30;3.00;;;;;;;24.72;62.09;100514.23;130293;1267;108139;-69
2022/08/03 09:45:28;;;;;;;6.30;3.40;;;;;;;24.80;62.55;100512.60;130265;1268;108680;-71
2022/08/03 09:48:35;;;;;;;3.50;3.20;;;;;;;24.88;62.29;100510.63;130093;1269;108999;-70
2022/08/03 09:51:41;;;;;;;3.90;3.30;;;;;;;24.95;61.89;100510.18;130330;1268;108892;-70
2022/08/03 09:54:52;;;;;;;6.50;3.50;;;;;;;25.01;62.06;100508.00;130284;1267;107345;-70
2022/08/03 09:58:08;;;;;;;4.80;3.00;;;;;;;25.11;61.86;100507.09;130229;1267;108764;-70
2022/08/03 10:01:13;;;;;;;4.50;2.90;;;;;;;25.19;61.32;100507.36;130094;1268;109102;-70
2022/08/03 10:04:18;;;;;;;3.50;2.90;;;;;;;25.21;61.10;100503.74;130210;1268;108782;-70
2022/08/03 10:07:24;;;;;;;3.60;2.90;;;;;;;25.24;60.85;100504.96;130179;1267;107619;-70
2022/08/03 10:10:43;;;;;;;3.10;2.90;;;;;;;25.27;60.51;100502.08;130254;1267;108721;-70
2022/08/03 10:13:49;;;;;;;3.30;2.90;;;;;;;25.34;60.54;100497.28;130236;1268;109343;-70
2022/08/03 10:16:54;;;;;;;3.40;3.10;;;;;;;25.41;60.73;100497.48;130245;1268;109811;-70
2022/08/03 10:19:59;;;;;;;3.90;3.00;;;;;;;25.49;60.57;100502.85;130283;1268;108590;-70
2022/08/03 10:23:07;;;;;;;4.30;2.90;;;;;;;25.63;60.05;100503.16;130357;1268;109557;-70
2022/08/03 10:26:19;;;;;;;3.60;3.00;;;;;;;25.79;59.76;100501.57;130307;1268;110370;-70
2022/08/03 10:29:28;;;;;;;3.40;3.00;;;;;;;25.95;60.22;100500.70;130129;1268;108964;-70
2022/08/03 10:32:41;;;;;;;2.90;2.70;;;;;;;26.05;59.73;100499.83;130326;1267;109078;-70
2022/08/03 10:35:52;;;;;;;3.80;2.90;;;;;;;26.17;60.06;100503.13;130316;1267;109516;-70
2022/08/03 10:38:59;;;;;;;4.20;3.10;;;;;;;26.29;59.46;100506.14;130280;1267;108673;-70
2022/08/03 10:42:05;;;;;;;3.50;3.20;;;;;;;26.32;58.91;100504.92;130342;1268;108574;-70
2022/08/03 10:45:17;;;;;;;3.50;2.80;;;;;;;26.25;59.12;100502.96;130247;1267;108752;-70
2022/08/03 10:48:25;;;;;;;3.80;3.10;;;;;;;26.29;58.84;100501.87;130322;1267;107789;-70
2022/08/03 10:51:31;;;;;;;3.30;3.00;;;;;;;26.22;58.50;100500.73;130289;1267;109428;-70
2022/08/03 10:58:08;;;;;;;5.00;3.50;;;;;;;26.31;58.76;100496.37;130223;1267;108660;-71
2022/08/03 11:01:13;;;;;;;3.40;3.10;;;;;;;26.42;58.12;100494.44;130186;1267;107729;-70
2022/08/03 11:04:22;;;;;;;3.70;3.30;;;;;;;26.51;57.87;100491.99;130254;1267;108628;-70
2022/08/03 11:07:28;;;;;;;3.50;3.20;;;;;;;26.57;56.57;100489.39;130194;1267;108902;-71
2022/08/03 11:10:33;;;;;;;3.10;2.80;;;;;;;26.56;57.67;100485.02;130268;1267;107695;-69
2022/08/03 11:13:56;;;;;;;3.20;3.00;;;;;;;26.73;57.60;100482.94;130320;1267;109603;-70
2022/08/03 11:17:09;;;;;;;3.30;3.00;;;;;;;26.95;57.40;100480.64;130223;1267;109302;-70
2022/08/03 11:20:14;;;;;;;3.40;3.10;;;;;;;27.08;57.28;100482.55;130126;1271;108888;-70
2022/08/03 11:23:40;;;;;;;3.30;3.10;;;;;;;27.10;57.05;100483.15;130174;1267;108943;-70
2022/08/03 11:27:18;;;;;;;3.60;3.30;;;;;;;27.13;56.90;100480.73;130244;1268;109630;-70
2022/08/03 11:30:27;;;;;;;3.30;3.10;;;;;;;27.03;56.43;100476.18;130240;1268;108820;-70
2022/08/03 11:33:33;;;;;;;3.50;3.10;;;;;;;27.02;56.73;100475.58;130322;1268;108724;-70
2022/08/03 11:37:09;;;;;;;4.30;3.30;;;;;;;27.01;56.69;100471.19;130235;1267;109383;-70
2022/08/03 11:40:35;;;;;;;3.40;3.10;;;;;;;27.09;56.92;100469.41;130267;1268;108714;-70
2022/08/03 11:43:47;;;;;;;3.40;3.00;;;;;;;27.20;56.70;100464.91;130249;1267;108926;-70
2022/08/03 11:46:52;;;;;;;4.40;3.30;;;;;;;27.18;56.44;100472.71;130203;1267;108693;-70
2022/08/03 11:50:00;;;;;;;3.70;3.30;;;;;;;27.15;55.88;100466.01;130243;1267;108659;-70
2022/08/03 11:53:07;;;;;;;3.70;3.00;;;;;;;27.16;55.72;100462.23;130242;1267;108880;-70
2022/08/03 11:56:12;;;;;;;3.60;3.30;;;;;;;27.20;55.74;100462.83;130297;1268;108567;-70
2022/08/03 11:59:18;;;;;;;3.70;3.40;;;;;;;27.22;55.60;100464.20;130285;1268;108362;-70
2022/08/03 12:02:23;;;;;;;3.80;3.50;;;;;;;27.14;54.96;100459.09;130123;1268;206089;-70
2022/08/03 12:05:40;;;;;;;3.90;3.20;;;;;;;27.11;55.12;100457.03;130263;1268;108674;-70
2022/08/03 12:08:46;;;;;;;3.50;3.20;;;;;;;27.16;55.44;100457.96;130238;1267;108814;-70
2022/08/03 12:11:52;;;;;;;3.50;3.20;;;;;;;27.23;55.12;100453.42;130270;1268;108941;-70
2022/08/03 12:14:58;;;;;;;4.00;3.40;;;;;;;27.24;55.06;100451.97;130278;1268;108947;-70
2022/08/03 12:18:12;;;;;;;4.50;3.80;;;;;;;27.21;54.80;100449.52;130250;1268;107826;-70
2022/08/03 12:21:17;;;;;;;5.50;3.80;;;;;;;27.25;55.43;100446.45;130253;1268;109050;-70
2022/08/03 12:24:22;;;;;;;4.40;3.90;;;;;;;27.33;55.18;100448.40;130237;1268;107028;-70
2022/08/03 12:27:29;;;;;;;4.80;3.30;;;;;;;27.34;54.61;100446.54;130125;1271;108876;-70
2022/08/03 12:30:35;;;;;;;4.10;3.70;;;;;;;27.39;54.71;100444.98;130261;1267;108937;-70
2022/08/03 12:34:02;;;;;;;4.20;3.70;;;;;;;27.39;53.36;100443.92;130097;1268;108980;-70
2022/08/03 12:37:08;;;;;;;3.90;3.60;;;;;;;27.40;54.00;100442.77;130267;1268;108927;-70
2022/08/03 12:40:14;;;;;;;3.80;3.50;;;;;;;27.46;54.33;100436.73;130189;1268;108254;-70
2022/08/03 12:43:20;;;;;;;3.80;3.50;;;;;;;27.54;54.24;100432.52;130195;1268;107053;-70
2022/08/03 12:46:32;;;;;;;4.60;3.40;;;;;;;27.55;53.87;100425.73;130269;1268;108190;-70
2022/08/03 12:49:48;;;;;;;3.90;3.60;;;;;;;27.51;54.02;100425.05;130155;1268;108840;-71
2022/08/03 12:52:53;;;;;;;5.40;3.70;;;;;;;27.54;54.02;100423.10;130092;1268;107556;-70
2022/08/03 12:56:05;;;;;;;3.90;3.40;;;;;;;27.63;53.87;100418.63;130118;1268;108103;-70
2022/08/03 12:59:30;;;;;;;3.90;3.60;;;;;;;27.67;53.71;100415.90;130256;1268;108607;-70
2022/08/03 13:02:35;;;;;;;4.00;3.60;;;;;;;27.60;53.98;100414.65;130256;1268;108850;-70
2022/08/03 13:05:46;;;;;;;4.20;3.80;;;;;;;27.56;54.19;100408.09;130245;1268;108698;-70
2022/08/03 13:09:04;;;;;;;4.00;3.60;;;;;;;27.58;53.68;100405.31;130256;1268;108729;-70
2022/08/03 13:12:12;;;;;;;4.10;3.80;;;;;;;27.44;53.56;100408.00;130257;1268;108925;-70
2022/08/03 13:15:17;;;;;;;4.40;4.00;;;;;;;27.34;54.46;100412.25;130222;1267;108952;-70
2022/08/03 13:18:23;;;;;;;4.20;3.80;;;;;;;27.31;54.41;100408.98;130125;1269;108919;-70
2022/08/03 13:21:28;;;;;;;6.20;4.30;;;;;;;27.31;53.84;100409.98;130180;1268;109650;-70
2022/08/03 13:24:34;;;;;;;4.60;4.20;;;;;;;27.36;54.26;100404.05;130210;1268;108764;-70
2022/08/03 13:27:40;;;;;;;4.50;4.10;;;;;;;27.44;53.92;100402.63;130233;1268;108720;-70
2022/08/03 13:30:45;;;;;;;4.40;4.00;;;;;;;27.50;53.27;100399.92;130229;1267;108598;-70
2022/08/03 13:33:50;;;;;;;5.30;4.80;;;;;;;27.50;53.38;100401.19;130189;1268;108981;-70
2022/08/03 13:36:56;;;;;;;6.10;4.60;;;;;;;27.52;53.58;100399.89;130140;1268;107053;-70
2022/08/03 13:40:02;;;;;;;4.80;4.40;;;;;;;27.58;53.43;100395.50;130273;1268;107395;-70
2022/08/03 13:43:07;;;;;;;4.50;4.20;;;;;;;27.61;53.36;100393.22;130220;1268;108821;-70
2022/08/03 13:46:13;;;;;;;4.50;4.10;;;;;;;27.61;52.77;100392.66;130244;1268;108683;-70
2022/08/03 13:49:18;;;;;;;4.40;4.00;;;;;;;27.61;52.61;100391.52;130195;1268;107802;-70
2022/08/03 13:52:23;;;;;;;4.40;4.00;;;;;;;27.60;52.56;100387.35;130225;1268;108524;-70
2022/08/03 13:55:29;;;;;;;4.40;4.00;;;;;;;27.56;52.64;100387.33;130230;1268;108750;-70
2022/08/03 13:58:34;;;;;;;4.30;4.00;;;;;;;27.52;52.05;100385.21;130225;1268;107586;-70
2022/08/03 14:01:40;;;;;;;4.40;4.10;;;;;;;27.48;52.31;100379.75;130214;1268;109051;-70
2022/08/03 14:04:45;;;;;;;4.30;3.90;;;;;;;27.42;51.98;100383.31;130240;1268;109121;-70
2022/08/03 14:07:50;;;;;;;4.40;4.10;;;;;;;27.45;52.31;100380.17;130228;1268;108533;-70
2022/08/03 14:10:56;;;;;;;4.80;4.40;;;;;;;27.48;52.70;100380.02;130221;1268;108697;-70
2022/08/03 14:14:01;;;;;;;5.00;4.30;;;;;;;27.48;52.45;100380.90;130117;1268;109285;-70
2022/08/03 14:17:07;;;;;;;4.50;4.10;;;;;;;27.40;52.42;100379.30;130216;1269;109509;-70
2022/08/03 14:20:14;;;;;;;6.40;5.90;;;;;;;27.36;52.93;100380.26;130179;1268;108229;-70
2022/08/03 14:23:20;;;;;;;5.50;4.60;;;;;;;27.45;53.17;100372.10;130242;1268;107230;-72